sensor_id;sensor_type;location;lat;lon;timestamp;temperature;humidity
23301;DHT22;11819;51.394;12.340;2023-09-07T00:01:30;20.10;84.60
23301;DHT22;11819;51.394;12.340;2023-09-07T00:03:56;20.10;84.70
23301;DHT22;11819;51.394;12.340;2023-09-07T00:06:22;20.10;84.80
23301;DHT22;11819;51.394;12.340;2023-09-07T00:08:47;20.00;84.90
23301;DHT22;11819;51.394;12.340;2023-09-07T00:11:13;20.00;85.00
23301;DHT22;11819;51.394;12.340;2023-09-07T00:13:39;20.00;85.10
23301;DHT22;11819;51.394;12.340;2023-09-07T00:16:05;20.00;85.20
23301;DHT22;11819;51.394;12.340;2023-09-07T00:18:32;19.90;85.20
23301;DHT22;11819;51.394;12.340;2023-09-07T00:20:58;19.90;85.30
23301;DHT22;11819;51.394;12.340;2023-09-07T00:23:25;19.90;85.50
23301;DHT22;11819;51.394;12.340;2023-09-07T00:25:51;19.80;85.50
23301;DHT22;11819;51.394;12.340;2023-09-07T00:28:17;19.80;85.60
23301;DHT22;11819;51.394;12.340;2023-09-07T00:30:43;19.80;85.70
23301;DHT22;11819;51.394;12.340;2023-09-07T00:33:09;19.80;85.70
23301;DHT22;11819;51.394;12.340;2023-09-07T00:35:35;19.80;85.70
23301;DHT22;11819;51.394;12.340;2023-09-07T00:38:01;19.70;85.70
23301;DHT22;11819;51.394;12.340;2023-09-07T00:40:26;19.70;85.80
23301;DHT22;11819;51.394;12.340;2023-09-07T00:42:53;19.70;86.00
23301;DHT22;11819;51.394;12.340;2023-09-07T00:45:19;19.70;86.10
23301;DHT22;11819;51.394;12.340;2023-09-07T00:47:45;19.70;86.10
23301;DHT22;11819;51.394;12.340;2023-09-07T00:50:11;19.70;86.10
23301;DHT22;11819;51.394;12.340;2023-09-07T00:52:43;19.70;86.10
23301;DHT22;11819;51.394;12.340;2023-09-07T00:55:09;19.70;86.20
23301;DHT22;11819;51.394;12.340;2023-09-07T00:57:36;19.60;86.30
23301;DHT22;11819;51.394;12.340;2023-09-07T01:00:05;19.60;86.40
23301;DHT22;11819;51.394;12.340;2023-09-07T01:02:33;19.60;86.60
23301;DHT22;11819;51.394;12.340;2023-09-07T01:04:59;19.60;87.50
23301;DHT22;11819;51.394;12.340;2023-09-07T01:07:31;19.50;86.60
23301;DHT22;11819;51.394;12.340;2023-09-07T01:10:00;19.50;86.80
23301;DHT22;11819;51.394;12.340;2023-09-07T01:12:28;19.50;87.00
23301;DHT22;11819;51.394;12.340;2023-09-07T01:14:54;19.50;87.00
23301;DHT22;11819;51.394;12.340;2023-09-07T01:17:20;19.50;87.10
23301;DHT22;11819;51.394;12.340;2023-09-07T01:19:51;19.50;87.20
23301;DHT22;11819;51.394;12.340;2023-09-07T01:22:21;19.50;87.30
23301;DHT22;11819;51.394;12.340;2023-09-07T01:24:49;19.40;87.40
23301;DHT22;11819;51.394;12.340;2023-09-07T01:27:16;19.40;87.50
23301;DHT22;11819;51.394;12.340;2023-09-07T01:29:41;19.40;87.70
23301;DHT22;11819;51.394;12.340;2023-09-07T01:32:07;19.40;87.70
23301;DHT22;11819;51.394;12.340;2023-09-07T01:34:35;19.40;87.80
23301;DHT22;11819;51.394;12.340;2023-09-07T01:37:01;19.30;87.90
23301;DHT22;11819;51.394;12.340;2023-09-07T01:39:27;19.30;88.00
23301;DHT22;11819;51.394;12.340;2023-09-07T01:41:53;19.30;88.00
23301;DHT22;11819;51.394;12.340;2023-09-07T01:44:19;19.30;88.10
23301;DHT22;11819;51.394;12.340;2023-09-07T01:46:44;19.30;88.20
23301;DHT22;11819;51.394;12.340;2023-09-07T01:49:10;19.30;88.30
23301;DHT22;11819;51.394;12.340;2023-09-07T01:51:36;19.30;88.40
23301;DHT22;11819;51.394;12.340;2023-09-07T01:54:03;19.30;88.50
23301;DHT22;11819;51.394;12.340;2023-09-07T01:56:29;19.20;88.40
23301;DHT22;11819;51.394;12.340;2023-09-07T01:58:55;19.20;88.50
23301;DHT22;11819;51.394;12.340;2023-09-07T02:01:25;19.20;88.60
23301;DHT22;11819;51.394;12.340;2023-09-07T02:03:51;19.20;88.70
23301;DHT22;11819;51.394;12.340;2023-09-07T02:06:18;19.10;88.80
23301;DHT22;11819;51.394;12.340;2023-09-07T02:08:44;19.10;88.90
23301;DHT22;11819;51.394;12.340;2023-09-07T02:11:10;19.00;88.90
23301;DHT22;11819;51.394;12.340;2023-09-07T02:13:36;19.00;89.00
23301;DHT22;11819;51.394;12.340;2023-09-07T02:16:04;19.00;89.10
23301;DHT22;11819;51.394;12.340;2023-09-07T02:18:32;18.90;89.30
23301;DHT22;11819;51.394;12.340;2023-09-07T02:21:02;18.90;89.40
23301;DHT22;11819;51.394;12.340;2023-09-07T02:23:29;18.90;89.60
23301;DHT22;11819;51.394;12.340;2023-09-07T02:25:54;18.90;89.50
23301;DHT22;11819;51.394;12.340;2023-09-07T02:28:20;18.90;89.60
23301;DHT22;11819;51.394;12.340;2023-09-07T02:30:46;18.90;89.80
23301;DHT22;11819;51.394;12.340;2023-09-07T02:33:11;18.90;89.90
23301;DHT22;11819;51.394;12.340;2023-09-07T02:35:37;18.90;89.90
23301;DHT22;11819;51.394;12.340;2023-09-07T02:38:03;18.90;90.00
23301;DHT22;11819;51.394;12.340;2023-09-07T02:40:29;18.90;90.00
23301;DHT22;11819;51.394;12.340;2023-09-07T02:42:55;18.90;90.00
23301;DHT22;11819;51.394;12.340;2023-09-07T02:45:21;18.80;89.80
23301;DHT22;11819;51.394;12.340;2023-09-07T02:47:46;18.80;89.90
23301;DHT22;11819;51.394;12.340;2023-09-07T02:50:14;18.80;90.00
23301;DHT22;11819;51.394;12.340;2023-09-07T02:52:41;18.70;90.00
23301;DHT22;11819;51.394;12.340;2023-09-07T02:55:07;18.70;90.10
23301;DHT22;11819;51.394;12.340;2023-09-07T02:57:34;18.60;90.10
23301;DHT22;11819;51.394;12.340;2023-09-07T03:00:00;18.60;90.10
23301;DHT22;11819;51.394;12.340;2023-09-07T03:02:27;18.60;90.20
23301;DHT22;11819;51.394;12.340;2023-09-07T03:04:54;18.60;90.30
23301;DHT22;11819;51.394;12.340;2023-09-07T03:07:20;18.50;90.30
23301;DHT22;11819;51.394;12.340;2023-09-07T03:09:46;18.60;90.40
23301;DHT22;11819;51.394;12.340;2023-09-07T03:12:12;18.60;90.30
23301;DHT22;11819;51.394;12.340;2023-09-07T03:14:38;18.60;90.30
23301;DHT22;11819;51.394;12.340;2023-09-07T03:17:07;18.60;90.30
23301;DHT22;11819;51.394;12.340;2023-09-07T03:19:35;18.60;90.30
23301;DHT22;11819;51.394;12.340;2023-09-07T03:22:01;18.60;90.30
23301;DHT22;11819;51.394;12.340;2023-09-07T03:24:26;18.60;90.30
23301;DHT22;11819;51.394;12.340;2023-09-07T03:26:54;18.60;90.40
23301;DHT22;11819;51.394;12.340;2023-09-07T03:29:20;18.50;90.40
23301;DHT22;11819;51.394;12.340;2023-09-07T03:31:46;18.50;90.40
23301;DHT22;11819;51.394;12.340;2023-09-07T03:34:11;18.60;90.40
23301;DHT22;11819;51.394;12.340;2023-09-07T03:36:37;18.60;90.30
23301;DHT22;11819;51.394;12.340;2023-09-07T03:39:03;18.60;90.20
23301;DHT22;11819;51.394;12.340;2023-09-07T03:41:29;18.50;90.20
23301;DHT22;11819;51.394;12.340;2023-09-07T03:43:56;18.40;90.10
23301;DHT22;11819;51.394;12.340;2023-09-07T03:46:23;18.40;90.20
23301;DHT22;11819;51.394;12.340;2023-09-07T03:48:49;18.30;90.20
23301;DHT22;11819;51.394;12.340;2023-09-07T03:51:14;18.30;90.20
23301;DHT22;11819;51.394;12.340;2023-09-07T03:53:40;18.20;90.30
23301;DHT22;11819;51.394;12.340;2023-09-07T03:56:06;18.20;90.50
23301;DHT22;11819;51.394;12.340;2023-09-07T03:58:31;18.10;90.50
23301;DHT22;11819;51.394;12.340;2023-09-07T04:00:59;18.10;90.50
23301;DHT22;11819;51.394;12.340;2023-09-07T04:03:25;18.10;90.90
23301;DHT22;11819;51.394;12.340;2023-09-07T04:05:51;18.00;90.50
23301;DHT22;11819;51.394;12.340;2023-09-07T04:08:17;18.00;90.60
23301;DHT22;11819;51.394;12.340;2023-09-07T04:10:42;17.90;90.70
23301;DHT22;11819;51.394;12.340;2023-09-07T04:13:09;17.90;90.80
23301;DHT22;11819;51.394;12.340;2023-09-07T04:15:45;17.90;90.80
23301;DHT22;11819;51.394;12.340;2023-09-07T04:18:14;17.90;90.90
23301;DHT22;11819;51.394;12.340;2023-09-07T04:20:42;17.90;90.90
23301;DHT22;11819;51.394;12.340;2023-09-07T04:23:08;17.80;90.90
23301;DHT22;11819;51.394;12.340;2023-09-07T04:25:33;17.80;90.90
23301;DHT22;11819;51.394;12.340;2023-09-07T04:27:59;17.80;91.00
23301;DHT22;11819;51.394;12.340;2023-09-07T04:30:26;17.80;91.00
23301;DHT22;11819;51.394;12.340;2023-09-07T04:32:52;17.80;91.10
23301;DHT22;11819;51.394;12.340;2023-09-07T04:35:17;17.80;91.10
23301;DHT22;11819;51.394;12.340;2023-09-07T04:37:44;17.80;91.10
23301;DHT22;11819;51.394;12.340;2023-09-07T04:40:10;17.70;91.20
23301;DHT22;11819;51.394;12.340;2023-09-07T04:42:36;17.70;91.20
23301;DHT22;11819;51.394;12.340;2023-09-07T04:45:05;17.70;91.20
23301;DHT22;11819;51.394;12.340;2023-09-07T04:47:31;17.70;91.20
23301;DHT22;11819;51.394;12.340;2023-09-07T04:49:58;17.80;91.70
23301;DHT22;11819;51.394;12.340;2023-09-07T04:52:23;17.80;91.20
23301;DHT22;11819;51.394;12.340;2023-09-07T04:54:49;17.70;91.20
23301;DHT22;11819;51.394;12.340;2023-09-07T04:57:17;17.80;91.30
23301;DHT22;11819;51.394;12.340;2023-09-07T04:59:46;17.80;91.20
23301;DHT22;11819;51.394;12.340;2023-09-07T05:02:12;17.80;91.20
23301;DHT22;11819;51.394;12.340;2023-09-07T05:04:39;17.80;91.30
23301;DHT22;11819;51.394;12.340;2023-09-07T05:07:04;17.90;91.30
23301;DHT22;11819;51.394;12.340;2023-09-07T05:09:30;18.00;91.40
23301;DHT22;11819;51.394;12.340;2023-09-07T05:11:57;18.00;91.30
23301;DHT22;11819;51.394;12.340;2023-09-07T05:14:23;18.00;91.30
23301;DHT22;11819;51.394;12.340;2023-09-07T05:16:50;18.00;91.40
23301;DHT22;11819;51.394;12.340;2023-09-07T05:19:16;18.10;91.50
23301;DHT22;11819;51.394;12.340;2023-09-07T05:21:42;18.10;91.60
23301;DHT22;11819;51.394;12.340;2023-09-07T05:24:08;18.10;91.60
23301;DHT22;11819;51.394;12.340;2023-09-07T05:26:33;18.10;91.70
23301;DHT22;11819;51.394;12.340;2023-09-07T05:28:59;18.20;91.80
23301;DHT22;11819;51.394;12.340;2023-09-07T05:31:25;18.20;91.90
23301;DHT22;11819;51.394;12.340;2023-09-07T05:33:51;18.20;91.90
23301;DHT22;11819;51.394;12.340;2023-09-07T05:36:19;18.20;91.90
23301;DHT22;11819;51.394;12.340;2023-09-07T05:38:45;18.30;91.90
23301;DHT22;11819;51.394;12.340;2023-09-07T05:41:11;18.30;92.00
23301;DHT22;11819;51.394;12.340;2023-09-07T05:43:37;18.30;92.00
23301;DHT22;11819;51.394;12.340;2023-09-07T05:46:02;18.30;92.00
23301;DHT22;11819;51.394;12.340;2023-09-07T05:48:28;18.30;92.00
23301;DHT22;11819;51.394;12.340;2023-09-07T05:50:54;18.40;92.10
23301;DHT22;11819;51.394;12.340;2023-09-07T05:53:20;18.40;92.10
23301;DHT22;11819;51.394;12.340;2023-09-07T05:55:46;18.40;92.10
23301;DHT22;11819;51.394;12.340;2023-09-07T05:58:12;18.40;92.10
23301;DHT22;11819;51.394;12.340;2023-09-07T06:00:43;18.50;92.20
23301;DHT22;11819;51.394;12.340;2023-09-07T06:03:09;18.50;92.30
23301;DHT22;11819;51.394;12.340;2023-09-07T06:05:36;18.50;92.30
23301;DHT22;11819;51.394;12.340;2023-09-07T06:08:03;18.60;92.40
23301;DHT22;11819;51.394;12.340;2023-09-07T06:10:30;18.60;92.40
23301;DHT22;11819;51.394;12.340;2023-09-07T06:12:57;18.60;92.40
23301;DHT22;11819;51.394;12.340;2023-09-07T06:15:23;18.60;92.30
23301;DHT22;11819;51.394;12.340;2023-09-07T06:17:49;18.70;92.30
23301;DHT22;11819;51.394;12.340;2023-09-07T06:20:15;18.70;92.20
23301;DHT22;11819;51.394;12.340;2023-09-07T06:22:43;18.70;92.20
23301;DHT22;11819;51.394;12.340;2023-09-07T06:25:11;18.80;92.10
23301;DHT22;11819;51.394;12.340;2023-09-07T06:27:37;18.80;91.90
23301;DHT22;11819;51.394;12.340;2023-09-07T06:30:05;18.90;91.90
23301;DHT22;11819;51.394;12.340;2023-09-07T06:32:31;18.90;91.80
23301;DHT22;11819;51.394;12.340;2023-09-07T06:34:58;19.00;91.70
23301;DHT22;11819;51.394;12.340;2023-09-07T06:37:24;19.00;91.50
23301;DHT22;11819;51.394;12.340;2023-09-07T06:39:51;19.00;91.40
23301;DHT22;11819;51.394;12.340;2023-09-07T06:42:16;19.10;91.00
23301;DHT22;11819;51.394;12.340;2023-09-07T06:44:49;19.10;90.70
23301;DHT22;11819;51.394;12.340;2023-09-07T06:47:17;19.20;90.60
23301;DHT22;11819;51.394;12.340;2023-09-07T06:49:43;19.20;90.60
23301;DHT22;11819;51.394;12.340;2023-09-07T06:52:09;19.20;90.60
23301;DHT22;11819;51.394;12.340;2023-09-07T06:54:37;19.30;90.60
23301;DHT22;11819;51.394;12.340;2023-09-07T06:57:07;19.30;90.60
23301;DHT22;11819;51.394;12.340;2023-09-07T06:59:34;19.30;90.40
23301;DHT22;11819;51.394;12.340;2023-09-07T07:01:59;19.40;90.30
23301;DHT22;11819;51.394;12.340;2023-09-07T07:04:26;19.40;90.20
23301;DHT22;11819;51.394;12.340;2023-09-07T07:06:57;19.50;90.20
23301;DHT22;11819;51.394;12.340;2023-09-07T07:09:28;19.50;90.10
23301;DHT22;11819;51.394;12.340;2023-09-07T07:11:56;19.60;90.20
23301;DHT22;11819;51.394;12.340;2023-09-07T07:14:22;19.60;90.10
23301;DHT22;11819;51.394;12.340;2023-09-07T07:16:48;19.70;90.00
23301;DHT22;11819;51.394;12.340;2023-09-07T07:19:14;19.70;90.00
23301;DHT22;11819;51.394;12.340;2023-09-07T07:21:40;19.80;89.90
23301;DHT22;11819;51.394;12.340;2023-09-07T07:24:08;19.80;89.00
23301;DHT22;11819;51.394;12.340;2023-09-07T07:26:34;19.80;88.70
23301;DHT22;11819;51.394;12.340;2023-09-07T07:29:02;19.90;88.50
23301;DHT22;11819;51.394;12.340;2023-09-07T07:31:29;19.90;88.20
23301;DHT22;11819;51.394;12.340;2023-09-07T07:33:55;20.00;87.90
23301;DHT22;11819;51.394;12.340;2023-09-07T07:36:21;20.00;87.70
23301;DHT22;11819;51.394;12.340;2023-09-07T07:38:47;20.00;87.70
23301;DHT22;11819;51.394;12.340;2023-09-07T07:41:13;20.10;87.70
23301;DHT22;11819;51.394;12.340;2023-09-07T07:43:40;20.10;87.40
23301;DHT22;11819;51.394;12.340;2023-09-07T07:46:05;20.10;87.20
23301;DHT22;11819;51.394;12.340;2023-09-07T07:48:32;20.20;87.40
23301;DHT22;11819;51.394;12.340;2023-09-07T07:51:03;20.20;87.30
23301;DHT22;11819;51.394;12.340;2023-09-07T07:53:31;20.30;87.60
23301;DHT22;11819;51.394;12.340;2023-09-07T07:55:57;20.30;87.70
23301;DHT22;11819;51.394;12.340;2023-09-07T07:58:24;20.40;87.70
23301;DHT22;11819;51.394;12.340;2023-09-07T08:00:50;20.40;87.60
23301;DHT22;11819;51.394;12.340;2023-09-07T08:03:21;20.40;87.50
23301;DHT22;11819;51.394;12.340;2023-09-07T08:05:48;20.50;87.70
23301;DHT22;11819;51.394;12.340;2023-09-07T08:08:14;20.50;87.50
23301;DHT22;11819;51.394;12.340;2023-09-07T08:10:41;20.60;87.50
23301;DHT22;11819;51.394;12.340;2023-09-07T08:13:08;20.60;87.60
23301;DHT22;11819;51.394;12.340;2023-09-07T08:15:34;20.60;87.00
23301;DHT22;11819;51.394;12.340;2023-09-07T08:18:00;20.70;87.20
23301;DHT22;11819;51.394;12.340;2023-09-07T08:20:27;20.70;87.50
23301;DHT22;11819;51.394;12.340;2023-09-07T08:22:54;20.80;87.70
23301;DHT22;11819;51.394;12.340;2023-09-07T08:25:20;20.90;87.60
23301;DHT22;11819;51.394;12.340;2023-09-07T08:27:46;20.90;87.20
23301;DHT22;11819;51.394;12.340;2023-09-07T08:30:14;21.00;87.10
23301;DHT22;11819;51.394;12.340;2023-09-07T08:32:46;21.00;86.80
23301;DHT22;11819;51.394;12.340;2023-09-07T08:35:13;21.10;86.80
23301;DHT22;11819;51.394;12.340;2023-09-07T08:37:40;21.10;86.70
23301;DHT22;11819;51.394;12.340;2023-09-07T08:40:06;21.20;86.60
23301;DHT22;11819;51.394;12.340;2023-09-07T08:42:35;21.20;86.40
23301;DHT22;11819;51.394;12.340;2023-09-07T08:45:02;21.20;86.90
23301;DHT22;11819;51.394;12.340;2023-09-07T08:47:33;21.30;87.00
23301;DHT22;11819;51.394;12.340;2023-09-07T08:49:59;21.30;87.00
23301;DHT22;11819;51.394;12.340;2023-09-07T08:52:25;21.40;87.40
23301;DHT22;11819;51.394;12.340;2023-09-07T08:54:52;21.40;87.10
23301;DHT22;11819;51.394;12.340;2023-09-07T08:57:21;21.50;86.40
23301;DHT22;11819;51.394;12.340;2023-09-07T08:59:47;21.60;86.50
23301;DHT22;11819;51.394;12.340;2023-09-07T09:02:14;21.60;86.60
23301;DHT22;11819;51.394;12.340;2023-09-07T09:04:42;21.70;86.90
23301;DHT22;11819;51.394;12.340;2023-09-07T09:07:07;21.70;85.60
23301;DHT22;11819;51.394;12.340;2023-09-07T09:09:33;21.80;85.40
23301;DHT22;11819;51.394;12.340;2023-09-07T09:12:12;21.90;85.60
23301;DHT22;11819;51.394;12.340;2023-09-07T09:14:41;22.00;85.80
23301;DHT22;11819;51.394;12.340;2023-09-07T09:17:14;22.00;84.60
23301;DHT22;11819;51.394;12.340;2023-09-07T09:19:40;22.00;85.00
23301;DHT22;11819;51.394;12.340;2023-09-07T09:22:07;22.10;85.20
23301;DHT22;11819;51.394;12.340;2023-09-07T09:24:33;22.20;85.30
23301;DHT22;11819;51.394;12.340;2023-09-07T09:27:03;22.20;85.60
23301;DHT22;11819;51.394;12.340;2023-09-07T09:29:31;22.20;84.60
23301;DHT22;11819;51.394;12.340;2023-09-07T09:32:00;22.30;83.30
23301;DHT22;11819;51.394;12.340;2023-09-07T09:34:34;22.40;82.50
23301;DHT22;11819;51.394;12.340;2023-09-07T09:37:01;22.50;81.90
23301;DHT22;11819;51.394;12.340;2023-09-07T09:39:29;22.60;81.70
23301;DHT22;11819;51.394;12.340;2023-09-07T09:41:55;22.60;82.10
23301;DHT22;11819;51.394;12.340;2023-09-07T09:44:23;22.70;82.00
23301;DHT22;11819;51.394;12.340;2023-09-07T09:46:52;22.80;81.70
23301;DHT22;11819;51.394;12.340;2023-09-07T09:49:22;22.80;81.40
23301;DHT22;11819;51.394;12.340;2023-09-07T09:51:49;22.90;81.80
23301;DHT22;11819;51.394;12.340;2023-09-07T09:54:19;23.00;78.80
23301;DHT22;11819;51.394;12.340;2023-09-07T09:56:45;23.10;78.90
23301;DHT22;11819;51.394;12.340;2023-09-07T09:59:13;23.10;79.60
23301;DHT22;11819;51.394;12.340;2023-09-07T10:01:48;23.20;80.10
23301;DHT22;11819;51.394;12.340;2023-09-07T10:04:17;23.20;79.90
23301;DHT22;11819;51.394;12.340;2023-09-07T10:06:53;23.30;79.20
23301;DHT22;11819;51.394;12.340;2023-09-07T10:09:19;23.30;78.60
23301;DHT22;11819;51.394;12.340;2023-09-07T10:11:52;23.40;79.20
23301;DHT22;11819;51.394;12.340;2023-09-07T10:14:18;23.50;77.60
23301;DHT22;11819;51.394;12.340;2023-09-07T10:16:46;23.50;77.50
23301;DHT22;11819;51.394;12.340;2023-09-07T10:19:20;23.60;77.40
23301;DHT22;11819;51.394;12.340;2023-09-07T10:21:46;23.60;78.20
23301;DHT22;11819;51.394;12.340;2023-09-07T10:24:27;23.70;76.80
23301;DHT22;11819;51.394;12.340;2023-09-07T10:27:04;23.80;77.50
23301;DHT22;11819;51.394;12.340;2023-09-07T10:29:50;23.80;78.20
23301;DHT22;11819;51.394;12.340;2023-09-07T10:32:17;23.90;77.70
23301;DHT22;11819;51.394;12.340;2023-09-07T10:34:43;23.90;78.60
23301;DHT22;11819;51.394;12.340;2023-09-07T10:37:13;23.90;77.10
23301;DHT22;11819;51.394;12.340;2023-09-07T10:39:44;24.00;77.30
23301;DHT22;11819;51.394;12.340;2023-09-07T10:42:22;24.00;77.10
23301;DHT22;11819;51.394;12.340;2023-09-07T10:44:49;24.00;76.00
23301;DHT22;11819;51.394;12.340;2023-09-07T10:47:15;24.10;75.20
23301;DHT22;11819;51.394;12.340;2023-09-07T10:49:41;24.20;76.30
23301;DHT22;11819;51.394;12.340;2023-09-07T10:52:06;24.20;75.20
23301;DHT22;11819;51.394;12.340;2023-09-07T10:54:32;24.30;74.20
23301;DHT22;11819;51.394;12.340;2023-09-07T10:57:07;24.40;74.30
23301;DHT22;11819;51.394;12.340;2023-09-07T10:59:33;24.40;73.50
23301;DHT22;11819;51.394;12.340;2023-09-07T11:02:05;24.50;72.90
23301;DHT22;11819;51.394;12.340;2023-09-07T11:04:31;24.50;73.00
23301;DHT22;11819;51.394;12.340;2023-09-07T11:06:57;24.50;72.60
23301;DHT22;11819;51.394;12.340;2023-09-07T11:09:23;24.60;71.40
23301;DHT22;11819;51.394;12.340;2023-09-07T11:11:49;24.60;71.50
23301;DHT22;11819;51.394;12.340;2023-09-07T11:14:14;24.70;71.60
23301;DHT22;11819;51.394;12.340;2023-09-07T11:16:40;24.70;71.80
23301;DHT22;11819;51.394;12.340;2023-09-07T11:19:07;24.70;72.10
23301;DHT22;11819;51.394;12.340;2023-09-07T11:21:34;24.80;72.90
23301;DHT22;11819;51.394;12.340;2023-09-07T11:24:02;24.90;71.00
23301;DHT22;11819;51.394;12.340;2023-09-07T11:26:47;25.00;71.00
23301;DHT22;11819;51.394;12.340;2023-09-07T11:29:16;25.10;69.00
23301;DHT22;11819;51.394;12.340;2023-09-07T11:31:43;25.20;65.80
23301;DHT22;11819;51.394;12.340;2023-09-07T11:34:10;25.20;67.70
23301;DHT22;11819;51.394;12.340;2023-09-07T11:36:36;25.20;67.90
23301;DHT22;11819;51.394;12.340;2023-09-07T11:39:02;25.30;67.10
23301;DHT22;11819;51.394;12.340;2023-09-07T11:41:36;25.30;67.40
23301;DHT22;11819;51.394;12.340;2023-09-07T11:44:01;25.40;68.00
23301;DHT22;11819;51.394;12.340;2023-09-07T11:46:27;25.50;68.70
23301;DHT22;11819;51.394;12.340;2023-09-07T11:48:52;25.60;68.70
23301;DHT22;11819;51.394;12.340;2023-09-07T11:51:18;25.60;67.50
23301;DHT22;11819;51.394;12.340;2023-09-07T11:53:44;25.70;66.30
23301;DHT22;11819;51.394;12.340;2023-09-07T11:56:09;25.70;66.00
23301;DHT22;11819;51.394;12.340;2023-09-07T11:58:35;25.80;66.60
23301;DHT22;11819;51.394;12.340;2023-09-07T12:01:01;25.90;65.70
23301;DHT22;11819;51.394;12.340;2023-09-07T12:03:27;25.90;65.30
23301;DHT22;11819;51.394;12.340;2023-09-07T12:05:55;26.00;65.80
23301;DHT22;11819;51.394;12.340;2023-09-07T12:08:21;26.10;66.00
23301;DHT22;11819;51.394;12.340;2023-09-07T12:10:46;26.10;64.10
23301;DHT22;11819;51.394;12.340;2023-09-07T12:13:13;26.20;64.80
23301;DHT22;11819;51.394;12.340;2023-09-07T12:15:39;26.30;64.90
23301;DHT22;11819;51.394;12.340;2023-09-07T12:18:05;26.40;63.60
23301;DHT22;11819;51.394;12.340;2023-09-07T12:20:30;26.50;64.30
23301;DHT22;11819;51.394;12.340;2023-09-07T12:22:56;26.50;61.80
23301;DHT22;11819;51.394;12.340;2023-09-07T12:25:22;26.60;61.60
23301;DHT22;11819;51.394;12.340;2023-09-07T12:27:49;26.70;61.50
23301;DHT22;11819;51.394;12.340;2023-09-07T12:30:15;26.80;62.20
23301;DHT22;11819;51.394;12.340;2023-09-07T12:32:44;26.90;62.90
23301;DHT22;11819;51.394;12.340;2023-09-07T12:35:09;27.00;62.70
23301;DHT22;11819;51.394;12.340;2023-09-07T12:37:35;27.10;61.80
23301;DHT22;11819;51.394;12.340;2023-09-07T12:40:03;27.20;63.20
23301;DHT22;11819;51.394;12.340;2023-09-07T12:42:31;27.40;61.40
23301;DHT22;11819;51.394;12.340;2023-09-07T12:44:57;27.50;60.50
23301;DHT22;11819;51.394;12.340;2023-09-07T12:47:23;27.60;60.10
23301;DHT22;11819;51.394;12.340;2023-09-07T12:49:48;27.70;59.10
23301;DHT22;11819;51.394;12.340;2023-09-07T12:52:14;27.90;58.50
23301;DHT22;11819;51.394;12.340;2023-09-07T12:54:40;28.10;57.00
23301;DHT22;11819;51.394;12.340;2023-09-07T12:57:05;28.40;57.80
23301;DHT22;11819;51.394;12.340;2023-09-07T12:59:31;28.70;57.50
23301;DHT22;11819;51.394;12.340;2023-09-07T13:01:57;29.20;56.50
23301;DHT22;11819;51.394;12.340;2023-09-07T13:04:22;29.60;56.70
23301;DHT22;11819;51.394;12.340;2023-09-07T13:06:48;30.00;56.70
23301;DHT22;11819;51.394;12.340;2023-09-07T13:09:14;30.40;56.10
23301;DHT22;11819;51.394;12.340;2023-09-07T13:11:39;30.70;53.00
23301;DHT22;11819;51.394;12.340;2023-09-07T13:14:05;30.90;51.60
23301;DHT22;11819;51.394;12.340;2023-09-07T13:16:33;31.00;51.40
23301;DHT22;11819;51.394;12.340;2023-09-07T13:18:59;31.20;50.40
23301;DHT22;11819;51.394;12.340;2023-09-07T13:21:25;31.40;51.90
23301;DHT22;11819;51.394;12.340;2023-09-07T13:23:50;31.60;52.10
23301;DHT22;11819;51.394;12.340;2023-09-07T13:26:16;31.80;51.90
23301;DHT22;11819;51.394;12.340;2023-09-07T13:28:42;32.00;51.40
23301;DHT22;11819;51.394;12.340;2023-09-07T13:31:07;32.20;51.20
23301;DHT22;11819;51.394;12.340;2023-09-07T13:33:33;32.40;49.60
23301;DHT22;11819;51.394;12.340;2023-09-07T13:35:59;32.50;49.30
23301;DHT22;11819;51.394;12.340;2023-09-07T13:38:24;32.70;49.60
23301;DHT22;11819;51.394;12.340;2023-09-07T13:40:50;32.90;49.60
23301;DHT22;11819;51.394;12.340;2023-09-07T13:43:16;33.10;49.80
23301;DHT22;11819;51.394;12.340;2023-09-07T13:45:41;33.30;49.00
23301;DHT22;11819;51.394;12.340;2023-09-07T13:48:07;33.40;46.90
23301;DHT22;11819;51.394;12.340;2023-09-07T13:50:33;33.50;47.20
23301;DHT22;11819;51.394;12.340;2023-09-07T13:52:58;33.70;47.40
23301;DHT22;11819;51.394;12.340;2023-09-07T13:55:24;33.80;46.40
23301;DHT22;11819;51.394;12.340;2023-09-07T13:57:51;33.80;47.10
23301;DHT22;11819;51.394;12.340;2023-09-07T14:00:17;34.00;46.20
23301;DHT22;11819;51.394;12.340;2023-09-07T14:02:43;34.00;46.60
23301;DHT22;11819;51.394;12.340;2023-09-07T14:05:08;34.30;46.30
23301;DHT22;11819;51.394;12.340;2023-09-07T14:07:34;34.30;45.90
23301;DHT22;11819;51.394;12.340;2023-09-07T14:10:00;34.50;46.20
23301;DHT22;11819;51.394;12.340;2023-09-07T14:12:26;34.60;46.60
23301;DHT22;11819;51.394;12.340;2023-09-07T14:14:52;34.80;46.40
23301;DHT22;11819;51.394;12.340;2023-09-07T14:17:18;35.00;44.80
23301;DHT22;11819;51.394;12.340;2023-09-07T14:19:44;35.10;44.60
23301;DHT22;11819;51.394;12.340;2023-09-07T14:22:11;35.20;44.50
23301;DHT22;11819;51.394;12.340;2023-09-07T14:24:37;35.30;44.60
23301;DHT22;11819;51.394;12.340;2023-09-07T14:27:03;35.40;45.10
23301;DHT22;11819;51.394;12.340;2023-09-07T14:29:29;35.50;45.00
23301;DHT22;11819;51.394;12.340;2023-09-07T14:31:55;35.70;44.70
23301;DHT22;11819;51.394;12.340;2023-09-07T14:34:21;35.90;44.00
23301;DHT22;11819;51.394;12.340;2023-09-07T14:36:46;36.00;43.80
23301;DHT22;11819;51.394;12.340;2023-09-07T14:39:13;36.10;43.40
23301;DHT22;11819;51.394;12.340;2023-09-07T14:41:39;36.10;43.30
23301;DHT22;11819;51.394;12.340;2023-09-07T14:44:05;36.20;43.20
23301;DHT22;11819;51.394;12.340;2023-09-07T14:46:31;36.30;43.70
23301;DHT22;11819;51.394;12.340;2023-09-07T14:48:57;36.30;43.70
23301;DHT22;11819;51.394;12.340;2023-09-07T14:51:23;36.40;43.10
23301;DHT22;11819;51.394;12.340;2023-09-07T14:53:49;36.40;42.80
23301;DHT22;11819;51.394;12.340;2023-09-07T14:56:15;36.50;42.50
23301;DHT22;11819;51.394;12.340;2023-09-07T14:58:41;36.60;42.70
23301;DHT22;11819;51.394;12.340;2023-09-07T15:01:06;36.70;42.90
23301;DHT22;11819;51.394;12.340;2023-09-07T15:03:32;36.70;43.00
23301;DHT22;11819;51.394;12.340;2023-09-07T15:05:58;36.70;42.70
23301;DHT22;11819;51.394;12.340;2023-09-07T15:08:24;36.70;43.00
23301;DHT22;11819;51.394;12.340;2023-09-07T15:10:49;36.70;42.80
23301;DHT22;11819;51.394;12.340;2023-09-07T15:13:15;36.70;42.20